West Point, Arkansas
Current Conditions -  °F | °C
As of 1:56 AM on Monday 24 Nov 2014 (Local Time) from KSRC Reporting Station
Broken Clouds Broken Clouds  
Wind Chill: 53°   Ceiling: 2500
Heat Index: 53°   Visibility: 10mi
Dew Point: 46°   Wind: 13mph
Humidity: 77%   Direction: 250°WSW
Pressure: 29.52"   Gusts: 22mph
Location:  35.21°N, 91.61°W
Report Text: KSRC 240756Z AUTO 25011G19KT 10SM BKN025 12/08 A2952 RMK AO2 PK WND 25027/0725 SLP001 T01170078 TSNO
Loading
Personal Weather Stations






























Interactive Weather Map New forecast layout! Learn more

10-Day Weather Forecast

Advertisements
Track Severe Weather on mobile